createdAt,value
2023-07-06T00:01:07.625Z,2.58
2023-07-06T00:03:37.833Z,2.20
2023-07-06T00:06:10.508Z,2.05
2023-07-06T00:08:38.762Z,2.10
2023-07-06T00:11:08.221Z,2.22
2023-07-06T00:13:34.807Z,2.35
2023-07-06T00:16:01.699Z,2.33
2023-07-06T00:18:28.319Z,2.40
2023-07-06T00:20:58.827Z,2.30
2023-07-06T00:23:25.484Z,2.40
2023-07-06T00:25:52.064Z,2.10
2023-07-06T00:28:26.966Z,2.30
2023-07-06T00:30:56.309Z,2.20
2023-07-06T00:33:24.657Z,2.40
2023-07-06T00:35:51.411Z,2.30
2023-07-06T00:38:22.963Z,2.20
2023-07-06T00:40:52.886Z,2.60
2023-07-06T00:43:25.356Z,2.30
2023-07-06T00:45:57.758Z,2.30
2023-07-06T00:48:36.060Z,2.70
2023-07-06T00:51:09.253Z,2.72
2023-07-06T00:53:39.802Z,2.50
2023-07-06T00:56:09.400Z,2.30
2023-07-06T00:58:41.839Z,2.42
2023-07-06T01:01:13.914Z,2.70
2023-07-06T01:03:47.679Z,3.08
2023-07-06T01:06:27.192Z,2.80
2023-07-06T01:08:57.503Z,3.15
2023-07-06T01:11:27.927Z,2.95
2023-07-06T01:14:00.634Z,3.17
2023-07-06T01:16:53.608Z,2.97
2023-07-06T01:19:22.830Z,2.60
2023-07-06T01:22:14.208Z,2.63
2023-07-06T01:25:18.990Z,2.92
2023-07-06T01:28:04.264Z,2.70
2023-07-06T01:30:59.359Z,2.70
2023-07-06T01:33:40.372Z,2.70
2023-07-06T01:36:22.816Z,2.80
2023-07-06T01:38:49.416Z,3.17
2023-07-06T01:41:29.399Z,2.60
2023-07-06T01:44:02.205Z,2.92
2023-07-06T01:46:29.464Z,3.38
2023-07-06T01:48:56.611Z,2.95
2023-07-06T01:51:36.542Z,3.08
2023-07-06T01:54:17.148Z,2.92
2023-07-06T01:57:03.582Z,3.15
2023-07-06T01:59:33.375Z,3.38
2023-07-06T02:02:08.322Z,3.25
2023-07-06T02:04:44.356Z,3.85
2023-07-06T02:07:13.030Z,4.00
2023-07-06T02:09:47.926Z,4.10
2023-07-06T02:12:15.007Z,4.78
2023-07-06T02:14:42.782Z,4.75
2023-07-06T02:17:13.119Z,4.03
2023-07-06T02:19:48.485Z,4.00
2023-07-06T02:22:14.980Z,4.25
2023-07-06T02:24:41.647Z,4.72
2023-07-06T02:27:11.122Z,4.50
2023-07-06T02:29:39.937Z,4.30
2023-07-06T02:32:10.785Z,3.72
2023-07-06T02:34:37.406Z,4.07
2023-07-06T02:37:04.467Z,3.90
2023-07-06T02:39:31.228Z,4.32
2023-07-06T02:41:58.061Z,4.10
2023-07-06T02:44:25.628Z,3.67
2023-07-06T02:46:53.045Z,3.80
2023-07-06T02:49:19.702Z,3.75
2023-07-06T02:51:47.613Z,3.22
2023-07-06T02:54:16.552Z,3.60
2023-07-06T02:56:43.810Z,3.47
2023-07-06T02:59:11.884Z,3.58
2023-07-06T03:01:38.643Z,3.38
2023-07-06T03:04:10.439Z,3.40
2023-07-06T03:09:10.361Z,3.70
2023-07-06T03:11:37.809Z,3.35
2023-07-06T03:14:05.132Z,3.35
2023-07-06T03:16:41.469Z,3.42
2023-07-06T03:19:14.177Z,3.22
2023-07-06T03:21:40.816Z,3.22
2023-07-06T03:24:08.910Z,3.38
2023-07-06T03:26:37.993Z,3.20
2023-07-06T03:29:06.121Z,2.80
2023-07-06T03:31:33.854Z,3.00
2023-07-06T03:34:07.285Z,2.92
2023-07-06T03:36:35.074Z,3.03
2023-07-06T03:39:02.585Z,2.75
2023-07-06T03:41:29.319Z,2.88
2023-07-06T03:43:59.867Z,2.70
2023-07-06T03:46:35.882Z,2.60
2023-07-06T03:49:08.441Z,2.70
2023-07-06T03:51:35.029Z,2.90
2023-07-06T03:54:07.723Z,2.83
2023-07-06T03:56:35.186Z,2.70
2023-07-06T03:59:02.252Z,2.90
2023-07-06T04:01:32.521Z,3.00
2023-07-06T04:03:59.837Z,2.78
2023-07-06T04:06:28.412Z,2.83
2023-07-06T04:08:57.978Z,2.75
2023-07-06T04:11:25.551Z,2.60
2023-07-06T04:14:00.166Z,2.80
2023-07-06T04:16:27.920Z,2.70
2023-07-06T04:18:54.478Z,2.58
2023-07-06T04:21:21.066Z,2.90
2023-07-06T04:23:50.858Z,2.50
2023-07-06T04:26:20.398Z,2.33
2023-07-06T04:28:48.831Z,2.83
2023-07-06T04:31:18.499Z,2.40
2023-07-06T04:33:47.498Z,2.80
2023-07-06T04:36:21.069Z,3.05
2023-07-06T04:38:47.733Z,3.13
2023-07-06T04:41:14.670Z,2.90
2023-07-06T04:43:41.210Z,2.85
2023-07-06T04:46:09.758Z,2.70
2023-07-06T04:48:37.355Z,3.15
2023-07-06T04:51:04.875Z,2.80
2023-07-06T04:53:33.890Z,3.35
2023-07-06T04:56:01.415Z,3.28
2023-07-06T04:58:30.096Z,3.53
2023-07-06T05:00:58.051Z,3.70
2023-07-06T05:03:24.845Z,4.03
2023-07-06T05:05:51.402Z,3.40
2023-07-06T05:08:21.118Z,2.95
2023-07-06T05:10:52.776Z,3.42
2023-07-06T05:13:20.848Z,3.17
2023-07-06T05:15:49.711Z,2.90
2023-07-06T05:18:19.641Z,3.33
2023-07-06T05:20:49.639Z,2.75
2023-07-06T05:23:16.612Z,2.83
2023-07-06T05:25:43.094Z,3.03
2023-07-06T05:28:12.117Z,2.75
2023-07-06T05:30:44.107Z,3.13
2023-07-06T05:33:10.726Z,2.88
2023-07-06T05:35:37.239Z,2.83
2023-07-06T05:38:03.819Z,3.17
2023-07-06T05:40:30.393Z,2.67
2023-07-06T05:42:57.048Z,2.80
2023-07-06T05:45:23.690Z,2.80
2023-07-06T05:47:50.288Z,2.90
2023-07-06T05:50:17.073Z,2.60
2023-07-06T05:52:43.640Z,2.67
2023-07-06T05:55:10.678Z,2.78
2023-07-06T05:57:37.326Z,2.90
2023-07-06T06:00:10.862Z,2.95
2023-07-06T06:02:41.135Z,2.80
2023-07-06T06:05:08.551Z,3.10
2023-07-06T06:07:35.037Z,3.20
2023-07-06T06:10:05.432Z,3.30
2023-07-06T06:12:33.067Z,3.10
2023-07-06T06:15:00.261Z,2.92
2023-07-06T06:17:29.716Z,3.33
2023-07-06T06:19:56.806Z,3.05
2023-07-06T06:22:23.921Z,2.80
2023-07-06T06:24:50.584Z,3.20
2023-07-06T06:27:18.790Z,3.38
2023-07-06T06:29:45.596Z,3.20
2023-07-06T06:32:14.040Z,2.78
2023-07-06T06:34:46.224Z,3.00
2023-07-06T06:37:12.730Z,2.70
2023-07-06T06:39:40.878Z,2.90
2023-07-06T06:42:09.020Z,2.83
2023-07-06T06:44:36.646Z,3.22
2023-07-06T06:47:05.409Z,2.88
2023-07-06T06:49:36.219Z,3.30
2023-07-06T06:52:05.871Z,2.75
2023-07-06T06:54:34.061Z,2.50
2023-07-06T06:57:02.042Z,2.78
2023-07-06T06:59:28.662Z,2.60
2023-07-06T07:01:56.217Z,2.70
2023-07-06T07:04:22.990Z,2.60
2023-07-06T07:06:49.565Z,2.78
2023-07-06T07:09:16.225Z,2.58
2023-07-06T07:11:42.800Z,2.70
2023-07-06T07:14:14.639Z,2.70
2023-07-06T07:19:11.386Z,2.70
2023-07-06T07:21:37.905Z,2.83
2023-07-06T07:24:04.792Z,2.78
2023-07-06T07:26:31.974Z,2.78
2023-07-06T07:28:59.005Z,2.50
2023-07-06T07:31:26.520Z,2.45
2023-07-06T07:33:53.098Z,2.78
2023-07-06T07:36:20.963Z,2.70
2023-07-06T07:38:49.463Z,2.50
2023-07-06T07:41:20.360Z,2.78
2023-07-06T07:43:49.407Z,2.40
2023-07-06T07:46:18.088Z,3.30
2023-07-06T07:48:48.266Z,3.00
2023-07-06T07:51:20.636Z,2.70
2023-07-06T07:53:47.178Z,2.60
2023-07-06T07:56:16.796Z,2.55
2023-07-06T07:58:48.446Z,2.50
2023-07-06T08:01:23.664Z,2.28
2023-07-06T08:03:51.248Z,2.55
2023-07-06T08:06:20.273Z,2.85
2023-07-06T08:08:49.397Z,2.20
2023-07-06T08:11:22.030Z,2.88
2023-07-06T08:13:54.661Z,2.45
2023-07-06T08:16:22.956Z,2.35
2023-07-06T08:18:54.498Z,2.60
2023-07-06T08:21:45.618Z,2.70
2023-07-06T08:24:12.915Z,2.42
2023-07-06T08:26:39.502Z,2.35
2023-07-06T08:29:06.048Z,2.53
2023-07-06T08:31:34.013Z,2.17
2023-07-06T08:34:01.822Z,2.42
2023-07-06T08:36:28.659Z,2.35
2023-07-06T08:38:58.093Z,2.15
2023-07-06T08:41:31.576Z,2.17
2023-07-06T08:44:00.884Z,2.00
2023-07-06T08:46:36.242Z,2.10
2023-07-06T08:49:06.592Z,1.80
2023-07-06T08:51:36.617Z,1.92
2023-07-06T08:54:11.885Z,2.10
2023-07-06T08:56:38.895Z,2.10
2023-07-06T08:59:23.346Z,1.98
2023-07-06T09:01:50.606Z,2.20
2023-07-06T09:04:24.740Z,2.03
2023-07-06T09:06:56.099Z,1.95
2023-07-06T09:09:22.713Z,1.92
2023-07-06T09:11:51.538Z,1.90
2023-07-06T09:14:21.155Z,1.70
2023-07-06T09:16:56.578Z,1.95
2023-07-06T09:19:26.090Z,2.28
2023-07-06T09:21:59.328Z,2.13
2023-07-06T09:24:29.095Z,2.10
2023-07-06T09:27:00.088Z,2.58
2023-07-06T09:29:31.454Z,2.30
2023-07-06T09:32:18.425Z,2.20
2023-07-06T09:34:47.799Z,2.10
2023-07-06T09:37:15.812Z,1.98
2023-07-06T09:39:56.655Z,2.40
2023-07-06T09:42:24.075Z,2.13
2023-07-06T13:58:38.204Z,2.00
2023-07-06T14:01:04.748Z,2.10
2023-07-06T14:03:33.075Z,1.80
2023-07-06T14:05:59.926Z,1.83
2023-07-06T14:08:26.741Z,1.73
2023-07-06T14:10:56.326Z,1.85
2023-07-06T14:13:25.120Z,1.95
2023-07-06T14:15:55.385Z,2.00
2023-07-06T14:18:24.200Z,2.00
2023-07-06T14:20:53.081Z,2.00
2023-07-06T14:23:20.532Z,1.88
2023-07-06T14:25:48.296Z,2.00
2023-07-06T14:28:20.163Z,1.52
2023-07-06T14:30:50.271Z,1.73
2023-07-06T14:33:21.064Z,1.92
2023-07-06T14:35:47.898Z,1.83
2023-07-06T14:38:14.918Z,1.58
2023-07-06T14:40:41.403Z,1.50
2023-07-06T14:43:08.288Z,1.80
2023-07-06T14:45:36.424Z,1.42
2023-07-06T14:48:03.716Z,1.65
2023-07-06T14:50:30.287Z,1.90
2023-07-06T14:52:57.398Z,1.90
2023-07-06T14:55:25.311Z,1.48
2023-07-06T14:57:52.717Z,1.92
2023-07-06T15:00:20.064Z,1.90
2023-07-06T15:02:50.872Z,1.73
2023-07-06T15:05:17.765Z,1.73
2023-07-06T15:07:44.361Z,1.73
2023-07-06T15:10:11.372Z,1.60
2023-07-06T15:12:41.619Z,1.58
2023-07-06T15:15:10.484Z,1.73
2023-07-06T15:17:37.146Z,1.60
2023-07-06T15:20:05.101Z,1.67
2023-07-06T15:22:31.859Z,2.22
2023-07-06T15:25:00.817Z,1.83
2023-07-06T15:27:27.412Z,1.75
2023-07-06T15:29:53.976Z,1.83
2023-07-06T15:32:21.770Z,1.80
2023-07-06T15:34:59.938Z,1.77
2023-07-06T15:37:28.747Z,1.80
2023-07-06T15:39:58.114Z,1.88
2023-07-06T15:42:25.192Z,1.70
2023-07-06T15:44:51.844Z,1.70
2023-07-06T15:47:18.447Z,1.92
2023-07-06T15:49:45.056Z,1.92
2023-07-06T15:52:11.802Z,2.05
2023-07-06T15:54:38.362Z,1.80
2023-07-06T15:57:05.163Z,1.70
2023-07-06T15:59:31.710Z,1.77
2023-07-06T16:01:59.193Z,1.70
2023-07-06T16:04:25.986Z,1.80
2023-07-06T16:06:52.589Z,1.83
2023-07-06T16:09:19.145Z,2.00
2023-07-06T16:11:45.830Z,1.80
2023-07-06T16:14:17.958Z,1.75
2023-07-06T16:16:46.596Z,1.60
2023-07-06T16:19:14.951Z,1.63
2023-07-06T16:21:41.673Z,1.98
2023-07-06T16:24:08.803Z,1.58
2023-07-06T16:26:35.415Z,1.80
2023-07-06T16:29:02.367Z,1.90
2023-07-06T16:31:32.710Z,1.77
2023-07-06T16:33:59.816Z,1.70
2023-07-06T16:36:26.594Z,1.70
2023-07-06T16:38:53.249Z,1.80
2023-07-06T16:41:20.403Z,1.80
2023-07-06T16:43:47.078Z,1.73
2023-07-06T16:46:15.227Z,1.80
2023-07-06T16:48:42.153Z,1.50
2023-07-06T16:51:09.303Z,1.70
2023-07-06T16:53:36.032Z,1.70
2023-07-06T16:56:02.884Z,1.80
2023-07-06T16:58:30.326Z,1.75
2023-07-06T17:00:59.094Z,1.60
2023-07-06T17:03:28.456Z,1.70
2023-07-06T17:05:56.534Z,1.58
2023-07-06T17:08:23.294Z,1.52
2023-07-06T17:10:50.504Z,1.83
2023-07-06T17:13:17.528Z,1.67
2023-07-06T17:15:48.310Z,1.77
2023-07-06T17:18:14.841Z,1.70
2023-07-06T17:20:41.444Z,1.67
2023-07-06T17:23:07.927Z,1.48
2023-07-06T17:25:34.471Z,1.65
2023-07-06T17:28:01.010Z,1.55
2023-07-06T17:30:27.927Z,1.75
2023-07-06T17:32:54.594Z,1.70
2023-07-06T17:35:21.318Z,1.60
2023-07-06T17:37:47.847Z,1.70
2023-07-06T17:40:14.379Z,1.80
2023-07-06T17:42:40.870Z,1.80
2023-07-06T17:45:07.855Z,1.80
2023-07-06T17:47:34.487Z,1.55
2023-07-06T17:50:01.031Z,1.45
2023-07-06T17:52:27.638Z,1.60
2023-07-06T17:54:54.250Z,1.80
2023-07-06T17:57:21.305Z,1.70
2023-07-06T17:59:47.829Z,1.40
2023-07-06T18:02:16.278Z,1.60
2023-07-06T18:04:45.109Z,1.73
2023-07-06T18:07:11.673Z,1.45
2023-07-06T18:09:38.246Z,1.90
2023-07-06T18:12:05.093Z,1.63
2023-07-06T18:14:32.735Z,1.58
2023-07-06T18:17:00.973Z,1.67
2023-07-06T18:19:29.982Z,1.60
2023-07-06T18:21:57.921Z,1.48
2023-07-06T18:24:25.063Z,1.92
2023-07-06T18:26:54.924Z,1.85
2023-07-06T18:29:21.946Z,1.45
2023-07-06T18:31:49.082Z,1.90
2023-07-06T18:34:16.040Z,1.60
2023-07-06T18:36:42.599Z,1.70
2023-07-06T18:39:09.127Z,1.77
2023-07-06T18:41:35.676Z,1.58
2023-07-06T18:44:05.059Z,1.88
2023-07-06T18:46:31.684Z,1.60
2023-07-06T18:48:58.179Z,1.67
2023-07-06T18:51:24.905Z,1.50
2023-07-06T18:53:51.397Z,1.83
2023-07-06T18:56:21.034Z,1.60
2023-07-06T18:58:47.789Z,1.75
2023-07-06T19:01:14.436Z,1.70
2023-07-06T19:03:42.002Z,1.75
2023-07-06T19:06:16.894Z,1.80
2023-07-06T19:08:46.057Z,1.90
2023-07-06T19:11:14.822Z,1.60
2023-07-06T19:13:42.126Z,1.80
2023-07-06T19:16:08.947Z,1.95
2023-07-06T19:18:35.549Z,1.67
2023-07-06T19:21:02.132Z,2.17
2023-07-06T19:23:30.104Z,1.88
2023-07-06T19:25:57.231Z,2.33
2023-07-06T19:28:24.143Z,1.98
2023-07-06T19:30:50.659Z,2.13
2023-07-06T19:33:17.212Z,2.00
2023-07-06T19:35:44.279Z,1.98
2023-07-06T19:38:11.627Z,2.22
2023-07-06T19:40:38.153Z,2.05
2023-07-06T19:43:04.757Z,2.40
2023-07-06T19:45:35.453Z,2.10
2023-07-06T19:48:02.140Z,2.58
2023-07-06T19:50:28.725Z,3.00
2023-07-06T19:52:55.243Z,2.78
2023-07-06T19:55:21.716Z,2.30
2023-07-06T19:57:48.384Z,2.40
2023-07-06T20:00:15.726Z,2.75
2023-07-06T20:02:43.753Z,2.70
2023-07-06T20:05:10.417Z,2.80
2023-07-06T20:07:37.687Z,2.42
2023-07-06T20:10:06.397Z,2.50
2023-07-06T20:12:33.446Z,2.88
2023-07-06T20:15:00.092Z,2.30
2023-07-06T20:17:26.696Z,2.50
2023-07-06T20:19:54.605Z,2.47
2023-07-06T20:22:21.167Z,2.70
2023-07-06T20:24:50.112Z,2.35
2023-07-06T20:27:16.982Z,2.45
2023-07-06T20:29:43.496Z,2.45
2023-07-06T20:32:12.389Z,2.50
2023-07-06T20:34:42.526Z,2.03
2023-07-06T20:37:09.528Z,2.35
2023-07-06T20:39:38.937Z,2.22
2023-07-06T20:42:06.213Z,2.28
2023-07-06T20:44:40.214Z,2.47
2023-07-06T20:47:07.036Z,2.50
2023-07-06T20:49:34.271Z,2.20
2023-07-06T20:52:02.457Z,2.40
2023-07-06T20:54:28.990Z,2.72
2023-07-06T20:56:55.520Z,2.40
2023-07-06T20:59:22.108Z,2.50
2023-07-06T21:01:48.777Z,2.30
2023-07-06T21:04:16.992Z,2.20
2023-07-06T21:06:44.567Z,2.50
2023-07-06T21:09:11.441Z,2.35
2023-07-06T21:11:39.226Z,2.40
2023-07-06T21:14:10.241Z,2.30
2023-07-06T21:16:43.302Z,2.22
2023-07-06T21:19:10.561Z,2.35
2023-07-06T21:21:37.914Z,2.30
2023-07-06T21:24:05.874Z,2.20
2023-07-06T21:26:34.126Z,2.22
2023-07-06T21:29:00.670Z,2.42
2023-07-06T21:31:27.814Z,2.22
2023-07-06T21:33:54.756Z,2.63
2023-07-06T21:36:21.608Z,2.72
2023-07-06T21:38:48.532Z,2.58
2023-07-06T21:41:16.668Z,2.08
2023-07-06T21:43:44.286Z,2.13
2023-07-06T21:46:10.892Z,2.10
2023-07-06T21:48:39.019Z,2.40
2023-07-06T21:51:07.296Z,2.42
2023-07-06T21:53:33.968Z,2.20
2023-07-06T21:56:01.679Z,2.33
2023-07-06T21:58:28.934Z,2.00
2023-07-06T22:00:57.010Z,1.77
2023-07-06T22:03:24.276Z,2.10
2023-07-06T22:06:04.136Z,1.90
2023-07-06T22:08:30.871Z,2.00
2023-07-06T22:10:58.322Z,2.17
2023-07-06T22:13:26.102Z,2.00
2023-07-06T22:15:55.570Z,2.40
2023-07-06T22:18:24.021Z,2.50
2023-07-06T22:20:51.290Z,2.17
2023-07-06T22:23:19.182Z,2.60
2023-07-06T22:25:46.304Z,2.10
2023-07-06T22:28:14.542Z,2.60
2023-07-06T22:30:43.179Z,2.10
2023-07-06T22:33:10.476Z,2.10
2023-07-06T22:35:37.164Z,2.00
2023-07-06T22:38:03.784Z,1.90
2023-07-06T22:40:32.324Z,2.05
2023-07-06T22:43:02.342Z,2.30
2023-07-06T22:45:29.649Z,2.20
2023-07-06T22:47:57.665Z,2.28
2023-07-06T22:50:27.360Z,2.30
2023-07-06T22:52:59.867Z,2.13
2023-07-06T22:55:27.176Z,2.20
2023-07-06T22:57:53.999Z,2.38
2023-07-06T23:00:20.730Z,2.30
2023-07-06T23:02:47.405Z,2.35
2023-07-06T23:05:14.461Z,2.03
2023-07-06T23:07:41.559Z,2.05
2023-07-06T23:10:08.498Z,2.00
2023-07-06T23:12:40.313Z,2.40
2023-07-06T23:15:09.576Z,2.50
2023-07-06T23:17:36.103Z,2.20
2023-07-06T23:20:05.470Z,2.25
2023-07-06T23:22:34.362Z,2.25
2023-07-06T23:25:05.484Z,2.20
2023-07-06T23:27:33.137Z,2.33
2023-07-06T23:29:59.884Z,2.20
2023-07-06T23:32:31.302Z,1.95
2023-07-06T23:34:58.124Z,2.35
2023-07-06T23:37:27.200Z,2.45
2023-07-06T23:39:55.777Z,2.33
2023-07-06T23:42:24.371Z,2.05
2023-07-06T23:44:51.173Z,1.95
2023-07-06T23:47:17.754Z,2.17
2023-07-06T23:49:44.268Z,2.20
2023-07-06T23:52:10.903Z,1.90
2023-07-06T23:54:37.473Z,2.08
2023-07-06T23:57:04.328Z,2.20
2023-07-06T23:59:30.803Z,2.22
